sensor_id;sensor_type;location;lat;lon;timestamp;temperature;humidity
18794;DHT22;29610;49.022;12.114;2023-10-08T00:01:09;13.60;95.60
18794;DHT22;29610;49.022;12.114;2023-10-08T00:03:39;13.60;95.60
18794;DHT22;29610;49.022;12.114;2023-10-08T00:06:15;13.60;95.60
18794;DHT22;29610;49.022;12.114;2023-10-08T00:08:47;13.60;95.70
18794;DHT22;29610;49.022;12.114;2023-10-08T00:11:16;13.60;95.60
18794;DHT22;29610;49.022;12.114;2023-10-08T00:13:45;13.60;95.50
18794;DHT22;29610;49.022;12.114;2023-10-08T00:16:16;13.60;95.60
18794;DHT22;29610;49.022;12.114;2023-10-08T00:18:46;13.60;95.50
18794;DHT22;29610;49.022;12.114;2023-10-08T00:21:18;13.60;95.60
18794;DHT22;29610;49.022;12.114;2023-10-08T00:23:55;13.60;95.70
18794;DHT22;29610;49.022;12.114;2023-10-08T00:26:27;13.90;95.60
18794;DHT22;29610;49.022;12.114;2023-10-08T00:29:00;13.60;95.70
18794;DHT22;29610;49.022;12.114;2023-10-08T00:31:33;13.60;95.70
18794;DHT22;29610;49.022;12.114;2023-10-08T00:34:08;13.60;95.60
18794;DHT22;29610;49.022;12.114;2023-10-08T00:36:38;13.60;95.70
18794;DHT22;29610;49.022;12.114;2023-10-08T00:39:10;13.70;95.70
18794;DHT22;29610;49.022;12.114;2023-10-08T00:41:43;13.60;95.60
18794;DHT22;29610;49.022;12.114;2023-10-08T00:44:13;13.60;95.80
18794;DHT22;29610;49.022;12.114;2023-10-08T00:46:43;13.60;96.30
18794;DHT22;29610;49.022;12.114;2023-10-08T00:49:17;13.50;96.20
18794;DHT22;29610;49.022;12.114;2023-10-08T00:52:09;13.50;96.50
18794;DHT22;29610;49.022;12.114;2023-10-08T00:54:53;13.50;96.10
18794;DHT22;29610;49.022;12.114;2023-10-08T00:57:36;13.40;96.20
18794;DHT22;29610;49.022;12.114;2023-10-08T01:00:10;13.60;96.20
18794;DHT22;29610;49.022;12.114;2023-10-08T01:02:50;13.40;96.50
18794;DHT22;29610;49.022;12.114;2023-10-08T01:05:28;13.30;96.30
18794;DHT22;29610;49.022;12.114;2023-10-08T01:08:19;13.30;96.40
18794;DHT22;29610;49.022;12.114;2023-10-08T01:13:55;13.60;96.50
18794;DHT22;29610;49.022;12.114;2023-10-08T01:16:25;13.20;96.40
18794;DHT22;29610;49.022;12.114;2023-10-08T01:18:54;13.20;96.50
18794;DHT22;29610;49.022;12.114;2023-10-08T01:21:23;13.40;96.90
18794;DHT22;29610;49.022;12.114;2023-10-08T01:24:03;13.20;96.80
18794;DHT22;29610;49.022;12.114;2023-10-08T01:26:33;13.20;96.90
18794;DHT22;29610;49.022;12.114;2023-10-08T01:29:09;13.20;97.00
18794;DHT22;29610;49.022;12.114;2023-10-08T01:31:46;14.60;97.60
18794;DHT22;29610;49.022;12.114;2023-10-08T01:34:17;13.20;96.80
18794;DHT22;29610;49.022;12.114;2023-10-08T01:36:50;13.30;96.80
18794;DHT22;29610;49.022;12.114;2023-10-08T01:39:19;13.30;96.70
18794;DHT22;29610;49.022;12.114;2023-10-08T01:41:48;13.40;96.50
18794;DHT22;29610;49.022;12.114;2023-10-08T01:44:18;13.50;96.40
18794;DHT22;29610;49.022;12.114;2023-10-08T01:46:46;13.70;96.30
18794;DHT22;29610;49.022;12.114;2023-10-08T01:49:16;13.60;96.20
18794;DHT22;29610;49.022;12.114;2023-10-08T01:51:48;13.60;96.30
18794;DHT22;29610;49.022;12.114;2023-10-08T01:54:17;13.50;96.20
18794;DHT22;29610;49.022;12.114;2023-10-08T01:56:49;13.50;96.30
18794;DHT22;29610;49.022;12.114;2023-10-08T01:59:18;14.00;96.60
18794;DHT22;29610;49.022;12.114;2023-10-08T02:01:46;13.50;96.60
18794;DHT22;29610;49.022;12.114;2023-10-08T02:04:15;13.60;96.70
18794;DHT22;29610;49.022;12.114;2023-10-08T02:06:44;13.40;96.70
18794;DHT22;29610;49.022;12.114;2023-10-08T02:09:13;13.50;96.70
18794;DHT22;29610;49.022;12.114;2023-10-08T02:11:43;13.50;96.70
18794;DHT22;29610;49.022;12.114;2023-10-08T02:14:13;13.70;97.00
18794;DHT22;29610;49.022;12.114;2023-10-08T02:16:43;13.50;97.10
18794;DHT22;29610;49.022;12.114;2023-10-08T02:19:11;13.70;97.30
18794;DHT22;29610;49.022;12.114;2023-10-08T02:21:40;13.50;97.20
18794;DHT22;29610;49.022;12.114;2023-10-08T02:24:13;13.40;97.20
18794;DHT22;29610;49.022;12.114;2023-10-08T02:26:41;13.30;97.40
18794;DHT22;29610;49.022;12.114;2023-10-08T02:29:10;13.30;97.50
18794;DHT22;29610;49.022;12.114;2023-10-08T02:31:41;13.40;97.70
18794;DHT22;29610;49.022;12.114;2023-10-08T02:34:10;13.30;97.70
18794;DHT22;29610;49.022;12.114;2023-10-08T02:36:40;13.50;97.90
18794;DHT22;29610;49.022;12.114;2023-10-08T02:39:10;13.20;97.80
18794;DHT22;29610;49.022;12.114;2023-10-08T02:41:44;13.20;97.90
18794;DHT22;29610;49.022;12.114;2023-10-08T02:44:14;13.20;98.00
18794;DHT22;29610;49.022;12.114;2023-10-08T02:46:46;13.30;98.00
18794;DHT22;29610;49.022;12.114;2023-10-08T02:49:17;13.20;98.40
18794;DHT22;29610;49.022;12.114;2023-10-08T02:51:48;13.10;98.10
18794;DHT22;29610;49.022;12.114;2023-10-08T02:54:19;13.10;98.10
18794;DHT22;29610;49.022;12.114;2023-10-08T02:56:52;13.10;98.10
18794;DHT22;29610;49.022;12.114;2023-10-08T02:59:28;13.20;98.10
18794;DHT22;29610;49.022;12.114;2023-10-08T03:02:07;13.10;98.20
18794;DHT22;29610;49.022;12.114;2023-10-08T03:04:41;13.10;98.10
18794;DHT22;29610;49.022;12.114;2023-10-08T03:07:12;13.10;98.10
18794;DHT22;29610;49.022;12.114;2023-10-08T03:09:51;13.10;98.20
18794;DHT22;29610;49.022;12.114;2023-10-08T03:12:30;13.10;98.00
18794;DHT22;29610;49.022;12.114;2023-10-08T03:14:59;13.10;97.70
18794;DHT22;29610;49.022;12.114;2023-10-08T03:17:41;13.50;98.10
18794;DHT22;29610;49.022;12.114;2023-10-08T03:20:17;13.00;98.30
18794;DHT22;29610;49.022;12.114;2023-10-08T03:23:06;13.00;98.20
18794;DHT22;29610;49.022;12.114;2023-10-08T03:25:40;12.90;98.40
18794;DHT22;29610;49.022;12.114;2023-10-08T03:28:14;13.00;98.60
18794;DHT22;29610;49.022;12.114;2023-10-08T03:30:43;12.90;98.50
18794;DHT22;29610;49.022;12.114;2023-10-08T03:33:21;12.90;98.60
18794;DHT22;29610;49.022;12.114;2023-10-08T03:35:53;12.90;98.50
18794;DHT22;29610;49.022;12.114;2023-10-08T03:38:23;12.80;98.50
18794;DHT22;29610;49.022;12.114;2023-10-08T03:41:06;12.80;98.60
18794;DHT22;29610;49.022;12.114;2023-10-08T03:43:35;12.80;98.60
18794;DHT22;29610;49.022;12.114;2023-10-08T03:46:14;12.80;98.70
18794;DHT22;29610;49.022;12.114;2023-10-08T03:48:44;12.80;98.90
18794;DHT22;29610;49.022;12.114;2023-10-08T03:51:12;12.80;99.00
18794;DHT22;29610;49.022;12.114;2023-10-08T03:53:41;13.00;99.20
18794;DHT22;29610;49.022;12.114;2023-10-08T03:56:26;12.80;99.20
18794;DHT22;29610;49.022;12.114;2023-10-08T03:58:57;12.80;99.10
18794;DHT22;29610;49.022;12.114;2023-10-08T04:01:27;12.70;99.30
18794;DHT22;29610;49.022;12.114;2023-10-08T04:04:00;12.60;99.40
18794;DHT22;29610;49.022;12.114;2023-10-08T04:06:29;12.60;99.50
18794;DHT22;29610;49.022;12.114;2023-10-08T04:09:05;12.50;99.50
18794;DHT22;29610;49.022;12.114;2023-10-08T04:11:44;12.50;99.70
18794;DHT22;29610;49.022;12.114;2023-10-08T04:14:26;12.80;99.90
18794;DHT22;29610;49.022;12.114;2023-10-08T04:16:55;12.30;99.90
18794;DHT22;29610;49.022;12.114;2023-10-08T04:19:27;12.30;99.90
18794;DHT22;29610;49.022;12.114;2023-10-08T04:21:56;12.20;99.90
18794;DHT22;29610;49.022;12.114;2023-10-08T04:24:26;12.60;99.90
18794;DHT22;29610;49.022;12.114;2023-10-08T04:27:02;12.10;99.90
18794;DHT22;29610;49.022;12.114;2023-10-08T04:29:33;12.00;99.90
18794;DHT22;29610;49.022;12.114;2023-10-08T04:32:04;12.00;99.90
18794;DHT22;29610;49.022;12.114;2023-10-08T04:34:37;11.90;99.90
18794;DHT22;29610;49.022;12.114;2023-10-08T04:37:13;11.80;99.90
18794;DHT22;29610;49.022;12.114;2023-10-08T04:39:47;11.70;99.90
18794;DHT22;29610;49.022;12.114;2023-10-08T04:42:24;11.60;99.90
18794;DHT22;29610;49.022;12.114;2023-10-08T04:44:53;11.80;99.90
18794;DHT22;29610;49.022;12.114;2023-10-08T04:47:23;11.60;99.90
18794;DHT22;29610;49.022;12.114;2023-10-08T04:50:03;11.60;99.90
18794;DHT22;29610;49.022;12.114;2023-10-08T04:52:32;11.70;99.90
18794;DHT22;29610;49.022;12.114;2023-10-08T04:55:12;11.70;99.90
18794;DHT22;29610;49.022;12.114;2023-10-08T04:57:46;11.80;99.90
18794;DHT22;29610;49.022;12.114;2023-10-08T05:00:16;11.80;99.90
18794;DHT22;29610;49.022;12.114;2023-10-08T05:03:05;11.80;99.90
18794;DHT22;29610;49.022;12.114;2023-10-08T05:05:42;11.90;99.90
18794;DHT22;29610;49.022;12.114;2023-10-08T05:08:34;11.90;99.90
18794;DHT22;29610;49.022;12.114;2023-10-08T05:11:14;12.00;99.90
18794;DHT22;29610;49.022;12.114;2023-10-08T05:13:52;12.10;99.90
18794;DHT22;29610;49.022;12.114;2023-10-08T05:16:33;12.20;99.90
18794;DHT22;29610;49.022;12.114;2023-10-08T05:19:10;12.50;99.90
18794;DHT22;29610;49.022;12.114;2023-10-08T05:22:16;12.30;99.90
18794;DHT22;29610;49.022;12.114;2023-10-08T05:25:02;12.30;99.90
18794;DHT22;29610;49.022;12.114;2023-10-08T05:27:40;12.40;99.90
18794;DHT22;29610;49.022;12.114;2023-10-08T05:30:25;12.50;99.90
18794;DHT22;29610;49.022;12.114;2023-10-08T05:32:56;12.50;99.90
18794;DHT22;29610;49.022;12.114;2023-10-08T05:35:41;12.60;99.90
18794;DHT22;29610;49.022;12.114;2023-10-08T05:38:23;12.80;99.90
18794;DHT22;29610;49.022;12.114;2023-10-08T05:41:05;12.80;99.90
18794;DHT22;29610;49.022;12.114;2023-10-08T05:43:54;12.90;99.90
18794;DHT22;29610;49.022;12.114;2023-10-08T05:46:40;12.80;99.90
18794;DHT22;29610;49.022;12.114;2023-10-08T05:49:21;12.90;99.90
18794;DHT22;29610;49.022;12.114;2023-10-08T05:52:21;12.90;99.90
18794;DHT22;29610;49.022;12.114;2023-10-08T05:55:09;13.00;99.90
18794;DHT22;29610;49.022;12.114;2023-10-08T05:57:43;13.00;99.90
18794;DHT22;29610;49.022;12.114;2023-10-08T06:00:19;13.10;99.90
18794;DHT22;29610;49.022;12.114;2023-10-08T06:03:04;13.20;99.90
18794;DHT22;29610;49.022;12.114;2023-10-08T06:05:59;13.20;99.90
18794;DHT22;29610;49.022;12.114;2023-10-08T06:08:46;13.30;99.90
18794;DHT22;29610;49.022;12.114;2023-10-08T06:11:20;13.30;99.90
18794;DHT22;29610;49.022;12.114;2023-10-08T06:14:08;13.40;99.90
18794;DHT22;29610;49.022;12.114;2023-10-08T06:16:55;13.50;99.90
18794;DHT22;29610;49.022;12.114;2023-10-08T06:19:40;13.40;99.90
18794;DHT22;29610;49.022;12.114;2023-10-08T06:22:10;13.70;99.90
18794;DHT22;29610;49.022;12.114;2023-10-08T06:24:37;13.80;99.90
18794;DHT22;29610;49.022;12.114;2023-10-08T06:27:07;13.90;99.90
18794;DHT22;29610;49.022;12.114;2023-10-08T06:29:36;14.20;99.90
18794;DHT22;29610;49.022;12.114;2023-10-08T06:32:11;14.10;99.90
18794;DHT22;29610;49.022;12.114;2023-10-08T06:34:39;14.20;99.90
18794;DHT22;29610;49.022;12.114;2023-10-08T06:37:07;14.20;99.90
18794;DHT22;29610;49.022;12.114;2023-10-08T06:39:36;14.40;99.90
18794;DHT22;29610;49.022;12.114;2023-10-08T06:42:16;14.50;99.90
18794;DHT22;29610;49.022;12.114;2023-10-08T06:44:45;14.60;99.90
18794;DHT22;29610;49.022;12.114;2023-10-08T06:47:15;14.80;99.70
18794;DHT22;29610;49.022;12.114;2023-10-08T06:49:45;14.80;99.50
18794;DHT22;29610;49.022;12.114;2023-10-08T06:52:13;14.80;99.90
18794;DHT22;29610;49.022;12.114;2023-10-08T06:54:42;14.90;99.90
18794;DHT22;29610;49.022;12.114;2023-10-08T06:57:10;14.90;99.90
18794;DHT22;29610;49.022;12.114;2023-10-08T06:59:42;15.00;99.90
18794;DHT22;29610;49.022;12.114;2023-10-08T07:02:10;15.10;99.90
18794;DHT22;29610;49.022;12.114;2023-10-08T07:04:42;15.20;99.90
18794;DHT22;29610;49.022;12.114;2023-10-08T07:07:13;15.20;99.50
18794;DHT22;29610;49.022;12.114;2023-10-08T07:09:45;15.30;99.10
18794;DHT22;29610;49.022;12.114;2023-10-08T07:12:15;15.40;99.20
18794;DHT22;29610;49.022;12.114;2023-10-08T07:14:44;15.40;99.50
18794;DHT22;29610;49.022;12.114;2023-10-08T07:17:13;15.50;99.80
18794;DHT22;29610;49.022;12.114;2023-10-08T07:19:47;15.60;99.10
18794;DHT22;29610;49.022;12.114;2023-10-08T07:22:17;15.60;98.90
18794;DHT22;29610;49.022;12.114;2023-10-08T07:24:49;15.80;98.80
18794;DHT22;29610;49.022;12.114;2023-10-08T07:27:18;15.90;98.10
18794;DHT22;29610;49.022;12.114;2023-10-08T07:29:52;15.90;98.80
18794;DHT22;29610;49.022;12.114;2023-10-08T07:32:24;15.70;98.90
18794;DHT22;29610;49.022;12.114;2023-10-08T07:34:53;16.10;98.10
18794;DHT22;29610;49.022;12.114;2023-10-08T07:37:41;16.20;98.00
18794;DHT22;29610;49.022;12.114;2023-10-08T07:40:10;16.20;97.60
18794;DHT22;29610;49.022;12.114;2023-10-08T07:42:40;16.20;97.60
18794;DHT22;29610;49.022;12.114;2023-10-08T07:45:10;16.30;97.50
18794;DHT22;29610;49.022;12.114;2023-10-08T07:47:44;16.30;97.50
18794;DHT22;29610;49.022;12.114;2023-10-08T07:50:12;16.30;97.90
18794;DHT22;29610;49.022;12.114;2023-10-08T07:52:42;16.40;97.60
18794;DHT22;29610;49.022;12.114;2023-10-08T07:55:11;16.40;98.10
18794;DHT22;29610;49.022;12.114;2023-10-08T07:57:44;16.60;98.10
18794;DHT22;29610;49.022;12.114;2023-10-08T08:00:14;16.70;97.80
18794;DHT22;29610;49.022;12.114;2023-10-08T08:02:50;16.90;97.20
18794;DHT22;29610;49.022;12.114;2023-10-08T08:05:19;17.00;97.00
18794;DHT22;29610;49.022;12.114;2023-10-08T08:07:48;17.10;96.70
18794;DHT22;29610;49.022;12.114;2023-10-08T08:10:17;17.30;96.40
18794;DHT22;29610;49.022;12.114;2023-10-08T08:12:46;17.30;96.10
18794;DHT22;29610;49.022;12.114;2023-10-08T08:15:19;17.40;96.00
18794;DHT22;29610;49.022;12.114;2023-10-08T08:17:48;17.40;95.70
18794;DHT22;29610;49.022;12.114;2023-10-08T08:20:16;17.50;95.30
18794;DHT22;29610;49.022;12.114;2023-10-08T08:22:49;17.60;95.10
18794;DHT22;29610;49.022;12.114;2023-10-08T08:25:21;17.60;94.20
18794;DHT22;29610;49.022;12.114;2023-10-08T08:28:01;17.70;94.10
18794;DHT22;29610;49.022;12.114;2023-10-08T08:30:34;17.70;93.80
18794;DHT22;29610;49.022;12.114;2023-10-08T08:33:04;17.80;94.20
18794;DHT22;29610;49.022;12.114;2023-10-08T08:35:38;17.80;94.30
18794;DHT22;29610;49.022;12.114;2023-10-08T08:38:06;17.80;93.70
18794;DHT22;29610;49.022;12.114;2023-10-08T08:40:35;17.90;93.70
18794;DHT22;29610;49.022;12.114;2023-10-08T08:43:05;17.90;93.80
18794;DHT22;29610;49.022;12.114;2023-10-08T08:45:38;18.00;93.50
18794;DHT22;29610;49.022;12.114;2023-10-08T08:48:07;18.10;93.30
18794;DHT22;29610;49.022;12.114;2023-10-08T08:50:37;18.30;93.70
18794;DHT22;29610;49.022;12.114;2023-10-08T08:53:06;18.30;93.90
18794;DHT22;29610;49.022;12.114;2023-10-08T08:55:36;18.20;93.20
18794;DHT22;29610;49.022;12.114;2023-10-08T08:58:06;18.20;93.40
18794;DHT22;29610;49.022;12.114;2023-10-08T09:00:40;18.40;94.00
18794;DHT22;29610;49.022;12.114;2023-10-08T09:03:10;18.60;93.00
18794;DHT22;29610;49.022;12.114;2023-10-08T09:05:40;18.70;93.20
18794;DHT22;29610;49.022;12.114;2023-10-08T09:08:09;18.80;92.90
18794;DHT22;29610;49.022;12.114;2023-10-08T09:10:38;18.90;93.20
18794;DHT22;29610;49.022;12.114;2023-10-08T09:13:19;19.00;93.10
18794;DHT22;29610;49.022;12.114;2023-10-08T09:15:51;19.10;92.80
18794;DHT22;29610;49.022;12.114;2023-10-08T09:18:24;19.10;92.60
18794;DHT22;29610;49.022;12.114;2023-10-08T09:20:54;19.20;92.10
18794;DHT22;29610;49.022;12.114;2023-10-08T09:23:24;19.20;92.50
18794;DHT22;29610;49.022;12.114;2023-10-08T09:25:52;19.30;92.40
18794;DHT22;29610;49.022;12.114;2023-10-08T09:28:31;19.50;92.10
18794;DHT22;29610;49.022;12.114;2023-10-08T09:31:03;19.60;92.00
18794;DHT22;29610;49.022;12.114;2023-10-08T09:33:31;19.70;91.90
18794;DHT22;29610;49.022;12.114;2023-10-08T09:36:01;19.70;91.90
18794;DHT22;29610;49.022;12.114;2023-10-08T09:38:34;19.60;92.10
18794;DHT22;29610;49.022;12.114;2023-10-08T09:41:03;19.50;91.50
18794;DHT22;29610;49.022;12.114;2023-10-08T09:43:35;19.40;92.00
18794;DHT22;29610;49.022;12.114;2023-10-08T09:46:15;19.30;91.90
18794;DHT22;29610;49.022;12.114;2023-10-08T09:48:50;19.10;92.20
18794;DHT22;29610;49.022;12.114;2023-10-08T09:51:20;19.00;92.30
18794;DHT22;29610;49.022;12.114;2023-10-08T09:53:57;19.00;92.60
18794;DHT22;29610;49.022;12.114;2023-10-08T09:56:32;19.00;92.50
18794;DHT22;29610;49.022;12.114;2023-10-08T09:59:01;19.20;92.50
18794;DHT22;29610;49.022;12.114;2023-10-08T10:01:32;19.30;92.10
18794;DHT22;29610;49.022;12.114;2023-10-08T10:04:00;19.40;91.80
18794;DHT22;29610;49.022;12.114;2023-10-08T10:06:29;19.50;91.80
18794;DHT22;29610;49.022;12.114;2023-10-08T10:09:00;19.40;91.90
18794;DHT22;29610;49.022;12.114;2023-10-08T10:11:31;19.30;91.70
18794;DHT22;29610;49.022;12.114;2023-10-08T10:14:01;19.10;91.90
18794;DHT22;29610;49.022;12.114;2023-10-08T10:16:36;18.90;92.20
18794;DHT22;29610;49.022;12.114;2023-10-08T10:19:06;18.80;92.90
18794;DHT22;29610;49.022;12.114;2023-10-08T10:21:45;18.90;92.50
18794;DHT22;29610;49.022;12.114;2023-10-08T10:24:32;19.00;92.80
18794;DHT22;29610;49.022;12.114;2023-10-08T10:27:11;19.00;92.30
18794;DHT22;29610;49.022;12.114;2023-10-08T10:29:41;19.10;92.70
18794;DHT22;29610;49.022;12.114;2023-10-08T10:32:14;19.20;92.50
18794;DHT22;29610;49.022;12.114;2023-10-08T10:34:43;19.50;92.70
18794;DHT22;29610;49.022;12.114;2023-10-08T10:37:14;19.70;92.00
18794;DHT22;29610;49.022;12.114;2023-10-08T10:39:54;19.80;92.10
18794;DHT22;29610;49.022;12.114;2023-10-08T10:42:26;19.90;91.60
18794;DHT22;29610;49.022;12.114;2023-10-08T10:44:55;19.90;91.30
18794;DHT22;29610;49.022;12.114;2023-10-08T10:47:27;19.90;91.30
18794;DHT22;29610;49.022;12.114;2023-10-08T10:49:55;20.10;91.50
18794;DHT22;29610;49.022;12.114;2023-10-08T10:52:49;20.20;91.00
18794;DHT22;29610;49.022;12.114;2023-10-08T10:55:20;20.20;90.80
18794;DHT22;29610;49.022;12.114;2023-10-08T10:57:51;20.40;91.10
18794;DHT22;29610;49.022;12.114;2023-10-08T11:00:31;20.70;90.90
18794;DHT22;29610;49.022;12.114;2023-10-08T11:03:24;20.80;90.90
18794;DHT22;29610;49.022;12.114;2023-10-08T11:05:56;21.00;90.20
18794;DHT22;29610;49.022;12.114;2023-10-08T11:08:34;20.80;90.10
18794;DHT22;29610;49.022;12.114;2023-10-08T11:11:02;20.70;90.10
18794;DHT22;29610;49.022;12.114;2023-10-08T11:13:36;20.50;90.20
18794;DHT22;29610;49.022;12.114;2023-10-08T11:16:08;20.30;90.80
18794;DHT22;29610;49.022;12.114;2023-10-08T11:18:44;20.30;90.60
18794;DHT22;29610;49.022;12.114;2023-10-08T11:21:17;20.60;90.30
18794;DHT22;29610;49.022;12.114;2023-10-08T11:23:52;21.00;89.80
18794;DHT22;29610;49.022;12.114;2023-10-08T11:26:24;21.00;89.90
18794;DHT22;29610;49.022;12.114;2023-10-08T11:29:01;21.20;88.60
18794;DHT22;29610;49.022;12.114;2023-10-08T11:31:31;21.10;89.30
18794;DHT22;29610;49.022;12.114;2023-10-08T11:34:03;20.90;90.00
18794;DHT22;29610;49.022;12.114;2023-10-08T11:36:37;20.80;90.00
18794;DHT22;29610;49.022;12.114;2023-10-08T11:39:17;20.90;90.40
18794;DHT22;29610;49.022;12.114;2023-10-08T11:41:58;20.90;89.60
18794;DHT22;29610;49.022;12.114;2023-10-08T11:44:31;21.10;89.80
18794;DHT22;29610;49.022;12.114;2023-10-08T11:47:03;21.10;90.00
18794;DHT22;29610;49.022;12.114;2023-10-08T11:49:38;21.20;89.80
18794;DHT22;29610;49.022;12.114;2023-10-08T11:52:14;21.10;88.70
18794;DHT22;29610;49.022;12.114;2023-10-08T11:54:44;20.90;89.30
18794;DHT22;29610;49.022;12.114;2023-10-08T11:57:15;20.70;90.30
18794;DHT22;29610;49.022;12.114;2023-10-08T11:59:48;20.50;90.40
18794;DHT22;29610;49.022;12.114;2023-10-08T12:02:19;20.40;90.40
18794;DHT22;29610;49.022;12.114;2023-10-08T12:04:48;20.10;90.50
18794;DHT22;29610;49.022;12.114;2023-10-08T12:07:16;20.10;91.10
18794;DHT22;29610;49.022;12.114;2023-10-08T12:09:46;20.10;91.50
18794;DHT22;29610;49.022;12.114;2023-10-08T12:12:15;20.00;91.10
18794;DHT22;29610;49.022;12.114;2023-10-08T12:14:49;20.00;91.20
18794;DHT22;29610;49.022;12.114;2023-10-08T12:17:21;20.10;91.00
18794;DHT22;29610;49.022;12.114;2023-10-08T12:20:05;20.20;91.10
18794;DHT22;29610;49.022;12.114;2023-10-08T12:22:49;20.30;91.10
18794;DHT22;29610;49.022;12.114;2023-10-08T12:25:19;20.30;90.80
18794;DHT22;29610;49.022;12.114;2023-10-08T12:27:47;20.20;90.80
18794;DHT22;29610;49.022;12.114;2023-10-08T12:30:16;20.40;90.70
18794;DHT22;29610;49.022;12.114;2023-10-08T12:32:44;20.70;90.50
18794;DHT22;29610;49.022;12.114;2023-10-08T12:35:13;20.90;90.60
18794;DHT22;29610;49.022;12.114;2023-10-08T12:37:41;21.00;90.30
18794;DHT22;29610;49.022;12.114;2023-10-08T12:40:11;20.80;90.10
18794;DHT22;29610;49.022;12.114;2023-10-08T12:42:51;20.60;90.80
18794;DHT22;29610;49.022;12.114;2023-10-08T12:45:21;20.40;90.70
18794;DHT22;29610;49.022;12.114;2023-10-08T12:47:49;20.40;91.00
18794;DHT22;29610;49.022;12.114;2023-10-08T12:50:20;20.50;90.70
18794;DHT22;29610;49.022;12.114;2023-10-08T12:52:56;20.70;90.80
18794;DHT22;29610;49.022;12.114;2023-10-08T12:55:30;21.00;91.10
18794;DHT22;29610;49.022;12.114;2023-10-08T12:58:07;21.20;90.10
18794;DHT22;29610;49.022;12.114;2023-10-08T13:00:37;21.60;90.00
18794;DHT22;29610;49.022;12.114;2023-10-08T13:03:08;21.80;89.10
18794;DHT22;29610;49.022;12.114;2023-10-08T13:05:42;21.80;89.40
18794;DHT22;29610;49.022;12.114;2023-10-08T13:08:12;21.70;89.00
18794;DHT22;29610;49.022;12.114;2023-10-08T13:10:41;21.60;89.00
18794;DHT22;29610;49.022;12.114;2023-10-08T13:13:12;21.40;89.40
18794;DHT22;29610;49.022;12.114;2023-10-08T13:15:41;21.30;90.00
18794;DHT22;29610;49.022;12.114;2023-10-08T13:18:09;21.50;90.30
18794;DHT22;29610;49.022;12.114;2023-10-08T13:20:38;21.60;89.80
18794;DHT22;29610;49.022;12.114;2023-10-08T13:23:08;21.70;89.60
18794;DHT22;29610;49.022;12.114;2023-10-08T13:25:37;21.60;89.40
18794;DHT22;29610;49.022;12.114;2023-10-08T13:28:06;21.50;90.10
18794;DHT22;29610;49.022;12.114;2023-10-08T13:30:38;21.30;89.70
18794;DHT22;29610;49.022;12.114;2023-10-08T13:33:06;21.20;90.40
18794;DHT22;29610;49.022;12.114;2023-10-08T13:35:36;20.80;90.50
18794;DHT22;29610;49.022;12.114;2023-10-08T13:38:05;20.30;91.20
18794;DHT22;29610;49.022;12.114;2023-10-08T13:40:36;19.90;92.10
18794;DHT22;29610;49.022;12.114;2023-10-08T13:43:10;19.50;92.20
18794;DHT22;29610;49.022;12.114;2023-10-08T13:45:40;19.30;92.60
18794;DHT22;29610;49.022;12.114;2023-10-08T13:48:08;19.20;92.80
18794;DHT22;29610;49.022;12.114;2023-10-08T13:50:41;18.90;93.00
18794;DHT22;29610;49.022;12.114;2023-10-08T13:53:10;18.80;93.40
18794;DHT22;29610;49.022;12.114;2023-10-08T13:55:40;19.00;93.70
18794;DHT22;29610;49.022;12.114;2023-10-08T13:58:12;19.10;93.40
18794;DHT22;29610;49.022;12.114;2023-10-08T14:00:41;19.10;93.30
18794;DHT22;29610;49.022;12.114;2023-10-08T14:03:09;18.90;93.30
18794;DHT22;29610;49.022;12.114;2023-10-08T14:05:41;18.80;93.20
18794;DHT22;29610;49.022;12.114;2023-10-08T14:08:10;18.70;93.40
18794;DHT22;29610;49.022;12.114;2023-10-08T14:10:42;18.60;93.60
18794;DHT22;29610;49.022;12.114;2023-10-08T14:13:11;18.40;93.90
18794;DHT22;29610;49.022;12.114;2023-10-08T14:15:40;18.40;93.80
18794;DHT22;29610;49.022;12.114;2023-10-08T14:18:13;18.40;93.70
18794;DHT22;29610;49.022;12.114;2023-10-08T14:20:44;18.50;93.60
18794;DHT22;29610;49.022;12.114;2023-10-08T14:23:17;18.50;93.70
18794;DHT22;29610;49.022;12.114;2023-10-08T14:25:45;18.40;93.50
18794;DHT22;29610;49.022;12.114;2023-10-08T14:28:15;18.30;93.80
18794;DHT22;29610;49.022;12.114;2023-10-08T14:30:50;18.30;93.60
18794;DHT22;29610;49.022;12.114;2023-10-08T14:33:22;18.10;93.60
18794;DHT22;29610;49.022;12.114;2023-10-08T14:35:58;18.00;93.80
18794;DHT22;29610;49.022;12.114;2023-10-08T14:38:44;17.90;94.00
18794;DHT22;29610;49.022;12.114;2023-10-08T14:41:35;17.80;94.00
18794;DHT22;29610;49.022;12.114;2023-10-08T14:44:21;17.80;94.00
18794;DHT22;29610;49.022;12.114;2023-10-08T14:46:51;17.80;94.00
18794;DHT22;29610;49.022;12.114;2023-10-08T14:49:22;17.70;94.10
18794;DHT22;29610;49.022;12.114;2023-10-08T14:51:50;17.60;94.20
18794;DHT22;29610;49.022;12.114;2023-10-08T14:54:20;17.50;94.30
18794;DHT22;29610;49.022;12.114;2023-10-08T14:56:48;17.20;94.60
18794;DHT22;29610;49.022;12.114;2023-10-08T14:59:17;17.00;94.90
18794;DHT22;29610;49.022;12.114;2023-10-08T15:01:47;16.90;95.00
18794;DHT22;29610;49.022;12.114;2023-10-08T15:04:18;16.80;95.10
18794;DHT22;29610;49.022;12.114;2023-10-08T15:06:46;16.70;95.30
18794;DHT22;29610;49.022;12.114;2023-10-08T15:09:15;16.70;95.40
18794;DHT22;29610;49.022;12.114;2023-10-08T15:11:48;16.70;95.40
18794;DHT22;29610;49.022;12.114;2023-10-08T15:14:18;16.70;95.40
18794;DHT22;29610;49.022;12.114;2023-10-08T15:16:47;16.60;95.40
18794;DHT22;29610;49.022;12.114;2023-10-08T15:19:21;16.50;95.40
18794;DHT22;29610;49.022;12.114;2023-10-08T15:21:51;16.50;95.60
18794;DHT22;29610;49.022;12.114;2023-10-08T15:24:20;16.40;95.80
18794;DHT22;29610;49.022;12.114;2023-10-08T15:26:49;16.40;95.70
18794;DHT22;29610;49.022;12.114;2023-10-08T15:29:19;16.40;95.70
18794;DHT22;29610;49.022;12.114;2023-10-08T15:31:48;16.40;95.70
18794;DHT22;29610;49.022;12.114;2023-10-08T15:34:20;16.40;95.90
18794;DHT22;29610;49.022;12.114;2023-10-08T15:37:04;16.20;95.90
18794;DHT22;29610;49.022;12.114;2023-10-08T15:39:33;16.10;96.10
18794;DHT22;29610;49.022;12.114;2023-10-08T15:42:01;16.00;96.10
18794;DHT22;29610;49.022;12.114;2023-10-08T15:44:30;16.00;96.10
18794;DHT22;29610;49.022;12.114;2023-10-08T15:46:59;16.00;96.30
18794;DHT22;29610;49.022;12.114;2023-10-08T15:49:28;16.00;96.20
18794;DHT22;29610;49.022;12.114;2023-10-08T15:51:57;15.80;96.30
18794;DHT22;29610;49.022;12.114;2023-10-08T15:54:25;15.80;96.50